Airfield :
LOGIN :

Register | Disclaimer

   EN    FR    IT 

 










Legend :    VFR   Marginal VFR   IFR   Intensive IFR   Very Intensive IFR
Visi :
Ceiling :
>= 8 km
>= 3000ft
5 to 8 km
1000 to 3000 ft
1500m to 5 km
500 to 1000 ft
800 to 1500m
200 to 500 ft
< 800m
< 200 ft
Symbols :   Thunderstorms  Fog  Heavy snow  Heavy precipitations  Wind > 20 kt
SIGMETs :     Misc.  Thunderstorms  Icing  Turbulence  Mountain Waves  Volcanic Ashes






- Airport Elevation : 1302 ft
- IATA code : GNB


LFLS - Grenoble / St. Geoirs

CURRENT METAR :
  • 131000Z AUTO 26007KT 9999 FEW039 BKN046 BKN052 09/03 Q0994 NOSIG

EXPIRED METARs :
  • 130930Z AUTO 26006KT 230V290 9999 FEW048 08/03 Q0993 NOSIG
  • 130900Z AUTO 21007KT CAVOK 07/04 Q0993 BECMG 27010KT
  • 130830Z AUTO 24010KT 9999 FEW047 BKN130 06/03 Q0993 BECMG FEW020TCU BKN040
  • 130800Z AUTO 23010KT 9999 FEW030 BKN100 OVC110 06/04 Q0992 TEMPO 2500 SHRA BECMG 29013KT FEW020TCU BKN040
  • 130730Z AUTO 27018G30KT 240V300 7000 RA FEW010/// BKN029/// BKN034/// ///CB 06/04 Q0991 TEMPO 2500 SHRA SCT030 BKN050 BECMG 29013KT

TAF TAF LFLS
Valid from the 13 at 09:00 until the 14 at 09:00 UTC


130800Z 1309/1409 27010KT 9999 SCT040
TEMPO 1312/1319 29015G30KT -SHRA FEW030TCU BKN035
BECMG 1318/1321 09005KT
FM132200 09005KT 9999 RA OVC035
TEMPO 1403/1405 19010G20KT
ATIS : +33 4 76 65 55 89



MET'MAP, your aeronautical weather chart ! - Copyright ORBIFLY December 2007 - Disclaimer

ORBIFLY MET'MAP TEAM :

Programming & Development : Alexandra Zaïnal
Concept & original design : Baudouin d'Aumeries
Assistance for programming : Marc-Olivier Méhu
Technical & hardware support : Manuel Goepfert

Contact : metmap@orbifly.com




SOURCES & CREDITS :

   NOAA